Terminal Aerodrome Forecast
Issued by NWS

Home | Current Version | Previous Version | Text Only | Print | Product List | Glossary On
Versions: 1 2 3 4 5 6 7 8 9 10 11 12 13 14
000
FTUS46 KMTR 252339
TAFSTS
TAF
KSTS 252339Z 2600/2624 17010KT P6SM FEW012
     FM260500 15005KT P6SM SKC
      TEMPO 2605/2607 3SM BR BKN007
     FM260700 16003KT 5SM BR OVC007
     FM261500 17007KT P6SM SKC=

USA.gov is the U.S. government's official web portal to all federal, state and local government web resources and services.